Time;durP1;ratioP1;P1;durP2;ratioP2;P2;SDS_P1;SDS_P2;PMS_P1;PMS_P2;Temp;Humidity;BMP_temperature;BMP_pressure;BME280_temperature;BME280_humidity;BME280_pressure;Samples;Min_cycle;Max_cycle;Signal;HPM_P1;HPM_P2
2021/01/06 00:01:21;;;;;;;14.93;13.43;;;5.80;47.70;;;;;;5012845;28;20460;-66
2021/01/06 00:03:47;;;;;;;15.37;13.80;;;5.90;47.60;;;;;;5012594;28;20515;-66
2021/01/06 00:06:14;;;;;;;16.20;14.17;;;5.90;47.60;;;;;;5012855;28;20449;-65
2021/01/06 00:08:43;;;;;;;14.57;12.73;;;5.90;47.70;;;;;;5012404;28;20406;-65
2021/01/06 00:11:10;;;;;;;12.97;11.67;;;5.80;47.80;;;;;;5012570;28;20408;-65
2021/01/06 00:13:35;;;;;;;14.47;12.97;;;5.80;48.30;;;;;;5012473;28;20459;-66
2021/01/06 00:16:01;;;;;;;14.90;13.40;;;5.70;48.00;;;;;;5012362;28;20438;-65
2021/01/06 00:18:27;;;;;;;15.20;11.50;;;5.80;48.30;;;;;;5012459;28;20663;-65
2021/01/06 00:20:54;;;;;;;14.00;12.50;;;5.70;47.80;;;;;;5012441;28;20459;-65
2021/01/06 00:23:19;;;;;;;16.10;13.77;;;5.80;48.10;;;;;;5012295;28;20253;-65
2021/01/06 00:25:45;;;;;;;14.10;12.57;;;5.70;47.90;;;;;;5012145;28;20534;-65
2021/01/06 00:28:13;;;;;;;15.30;12.20;;;5.80;47.70;;;;;;5012193;28;20169;-65
2021/01/06 00:30:42;;;;;;;14.40;11.87;;;5.60;48.00;;;;;;5012161;28;20413;-65
2021/01/06 00:33:11;;;;;;;13.70;11.83;;;5.80;48.20;;;;;;5012177;28;20553;-65
2021/01/06 00:35:37;;;;;;;15.37;12.90;;;5.80;48.00;;;;;;5012072;28;20431;-65
2021/01/06 00:38:03;;;;;;;15.83;13.33;;;5.80;47.00;;;;;;5011743;28;20764;-65
2021/01/06 00:40:32;;;;;;;13.03;11.70;;;5.90;47.20;;;;;;5012269;28;20182;-65
2021/01/06 00:42:59;;;;;;;15.73;12.33;;;5.80;47.20;;;;;;5012274;28;20408;-65
2021/01/06 00:45:25;;;;;;;13.10;11.60;;;5.80;47.40;;;;;;5011745;28;20531;-65
2021/01/06 00:47:51;;;;;;;13.30;11.73;;;5.70;47.40;;;;;;5012079;28;20424;-65
2021/01/06 00:50:19;;;;;;;13.67;12.33;;;5.70;47.40;;;;;;5011993;28;20409;-65
2021/01/06 00:52:45;;;;;;;15.70;12.87;;;5.60;47.30;;;;;;5011566;28;21016;-65
2021/01/06 00:55:11;;;;;;;15.07;11.17;;;5.40;48.60;;;;;;5011870;28;20432;-64
2021/01/06 00:57:36;;;;;;;13.10;11.80;;;5.50;48.70;;;;;;5011745;28;20656;-65
2021/01/06 01:00:06;;;;;;;12.73;11.40;;;5.50;48.70;;;;;;5011592;28;20438;-65
2021/01/06 01:02:31;;;;;;;14.03;12.00;;;5.50;48.10;;;;;;5011620;28;20295;-65
2021/01/06 01:04:57;;;;;;;12.50;11.23;;;5.50;48.10;;;;;;5011511;28;20432;-66
2021/01/06 01:07:22;;;;;;;12.80;11.17;;;5.50;48.00;;;;;;5011050;28;20173;-66
2021/01/06 01:09:48;;;;;;;14.57;11.50;;;5.50;48.40;;;;;;5011512;28;20185;-65
2021/01/06 01:12:13;;;;;;;16.40;12.53;;;5.60;47.60;;;;;;5011530;28;20205;-65
2021/01/06 01:14:39;;;;;;;12.43;10.73;;;5.50;48.20;;;;;;5011296;28;20193;-65
2021/01/06 01:17:04;;;;;;;14.93;12.03;;;5.60;47.40;;;;;;5011374;28;20812;-65
2021/01/06 01:19:30;;;;;;;14.63;11.83;;;5.50;47.90;;;;;;5011694;28;20173;-64
2021/01/06 01:21:55;;;;;;;12.30;10.90;;;5.50;47.40;;;;;;5011170;28;20671;-64
2021/01/06 01:24:21;;;;;;;12.53;11.00;;;5.40;47.70;;;;;;5010987;28;20220;-64
2021/01/06 01:26:51;;;;;;;13.47;10.77;;;5.60;47.40;;;;;;5011304;28;20181;-64
2021/01/06 01:29:16;;;;;;;13.47;11.17;;;5.50;47.30;;;;;;5011210;28;20169;-64
2021/01/06 01:31:45;;;;;;;12.67;11.37;;;5.50;47.80;;;;;;5011166;28;20408;-64
2021/01/06 01:34:11;;;;;;;12.40;10.80;;;5.60;47.10;;;;;;5011264;28;20208;-65
2021/01/06 01:36:37;;;;;;;12.77;10.40;;;5.40;47.30;;;;;;5010854;28;20416;-66
2021/01/06 01:39:03;;;;;;;12.13;10.83;;;5.40;47.40;;;;;;5011421;28;20214;-64
2021/01/06 01:41:29;;;;;;;12.90;10.70;;;5.40;48.20;;;;;;5011258;28;20166;-65
2021/01/06 01:43:54;;;;;;;12.07;10.77;;;5.40;47.70;;;;;;5010761;28;20438;-65
2021/01/06 01:46:23;;;;;;;14.13;11.73;;;5.50;47.90;;;;;;5011104;28;20190;-64
2021/01/06 01:48:50;;;;;;;11.17;9.77;;;5.40;47.70;;;;;;5010824;28;20184;-65
2021/01/06 01:51:44;;;;;;;10.50;9.40;;;5.40;47.60;;;;;;5010635;28;20409;-64
2021/01/06 01:54:16;;;;;;;11.40;10.20;;;5.40;47.10;;;;;;5010984;28;20985;-65
2021/01/06 01:56:45;;;;;;;11.57;10.47;;;5.40;47.30;;;;;;5010769;28;20418;-65
2021/01/06 01:59:40;;;;;;;13.50;10.97;;;5.50;47.10;;;;;;5010116;28;20918;-65
2021/01/06 02:02:12;;;;;;;10.47;9.47;;;5.50;48.20;;;;;;5011134;28;20442;-64
2021/01/06 02:04:43;;;;;;;12.53;10.17;;;5.40;47.20;;;;;;5010910;28;20891;-64
2021/01/06 02:07:24;;;;;;;12.80;10.43;;;5.30;47.20;;;;;;5010470;28;20408;-64
2021/01/06 02:09:59;;;;;;;13.00;10.40;;;5.30;48.00;;;;;;5010784;28;20396;-64
2021/01/06 02:12:50;;;;;;;11.47;10.30;;;5.20;48.10;;;;;;5010865;28;20483;-65
2021/01/06 02:15:29;;;;;;;10.97;9.87;;;5.30;48.00;;;;;;5010896;28;20428;-64
2021/01/06 02:17:54;;;;;;;11.27;9.97;;;5.40;47.60;;;;;;5010690;28;20408;-64
2021/01/06 02:20:26;;;;;;;11.80;10.30;;;5.40;47.70;;;;;;5010521;28;20493;-64
2021/01/06 02:22:52;;;;;;;11.20;10.03;;;5.30;48.00;;;;;;5011055;28;20446;-64
2021/01/06 02:25:20;;;;;;;10.70;9.00;;;5.40;47.50;;;;;;5010486;28;21001;-64
2021/01/06 02:27:46;;;;;;;10.47;8.83;;;5.20;48.40;;;;;;5010330;28;20420;-64
2021/01/06 02:30:14;;;;;;;10.40;8.70;;;5.30;48.10;;;;;;5010609;28;20416;-64
2021/01/06 02:32:40;;;;;;;12.07;9.90;;;5.20;48.40;;;;;;5010510;28;20482;-64
2021/01/06 02:35:11;;;;;;;11.07;9.87;;;5.20;48.40;;;;;;5010199;28;20443;-64
2021/01/06 02:37:37;;;;;;;10.30;9.30;;;5.30;48.30;;;;;;5010471;28;20905;-64
2021/01/06 02:40:05;;;;;;;13.63;11.30;;;5.30;48.30;;;;;;5010556;28;20420;-64
2021/01/06 02:42:31;;;;;;;10.43;9.37;;;5.10;48.30;;;;;;5010324;28;20469;-64
2021/01/06 02:44:56;;;;;;;10.53;8.63;;;5.10;48.30;;;;;;5010451;28;20946;-64
2021/01/06 02:47:22;;;;;;;11.07;9.97;;;5.00;48.50;;;;;;5010143;28;20236;-64
2021/01/06 02:49:49;;;;;;;9.70;8.80;;;5.20;48.40;;;;;;5010361;28;20253;-64
2021/01/06 02:52:32;;;;;;;12.40;11.10;;;5.20;48.40;;;;;;5010412;28;20490;-65
2021/01/06 02:54:58;;;;;;;10.87;9.87;;;5.20;48.50;;;;;;5010355;28;20456;-64
2021/01/06 02:57:24;;;;;;;12.87;10.67;;;5.10;48.30;;;;;;5010048;28;20408;-64
2021/01/06 02:59:50;;;;;;;11.73;10.53;;;5.10;48.30;;;;;;5010368;28;20409;-65
2021/01/06 03:02:22;;;;;;;9.80;8.83;;;5.00;48.20;;;;;;5010292;28;20173;-64
2021/01/06 03:05:12;;;;;;;10.77;9.67;;;5.20;48.40;;;;;;5010140;28;20236;-65
2021/01/06 03:07:38;;;;;;;10.53;9.53;;;5.20;48.40;;;;;;5010210;28;20419;-65
2021/01/06 03:10:05;;;;;;;9.73;8.83;;;5.20;48.40;;;;;;5013042;28;20823;-64
2021/01/06 03:12:33;;;;;;;13.20;9.93;;;5.10;48.30;;;;;;5013572;28;20459;-64
2021/01/06 03:14:59;;;;;;;10.33;9.30;;;5.00;48.30;;;;;;5013563;28;20428;-64
2021/01/06 03:17:27;;;;;;;10.23;9.23;;;5.00;49.20;;;;;;5013645;28;20930;-64
2021/01/06 03:19:56;;;;;;;11.67;9.43;;;5.10;48.70;;;;;;5013495;28;20408;-65
2021/01/06 03:22:24;;;;;;;10.03;9.13;;;5.10;49.10;;;;;;5013792;28;20412;-64
2021/01/06 03:24:56;;;;;;;9.87;8.90;;;5.00;49.00;;;;;;5013383;28;20460;-64
2021/01/06 03:27:23;;;;;;;10.50;9.40;;;5.00;49.40;;;;;;5013276;28;20408;-64
2021/01/06 03:29:50;;;;;;;10.43;8.70;;;5.10;49.20;;;;;;5013507;28;20499;-65
2021/01/06 03:32:42;;;;;;;9.77;8.87;;;5.10;48.40;;;;;;5013549;28;20539;-64
2021/01/06 03:35:34;;;;;;;9.70;8.80;;;5.10;48.40;;;;;;5013122;28;20428;-64
2021/01/06 03:38:13;;;;;;;9.93;8.93;;;5.00;48.50;;;;;;5013380;28;20427;-65
2021/01/06 03:40:42;;;;;;;9.47;8.57;;;5.00;48.50;;;;;;5013317;28;20404;-64
2021/01/06 03:43:09;;;;;;;9.00;8.20;;;4.90;48.50;;;;;;5013029;28;20412;-65
2021/01/06 03:45:40;;;;;;;10.60;9.50;;;4.80;49.70;;;;;;5012975;28;20461;-64
2021/01/06 03:48:11;;;;;;;10.47;9.40;;;4.90;49.10;;;;;;5012950;28;20867;-64
2021/01/06 03:50:42;;;;;;;11.73;9.60;;;4.80;49.80;;;;;;5012802;28;20409;-64
2021/01/06 03:53:35;;;;;;;11.50;10.40;;;4.90;49.10;;;;;;5012990;28;20463;-64
2021/01/06 03:56:11;;;;;;;10.73;9.73;;;5.00;48.20;;;;;;5012829;28;20420;-65
2021/01/06 03:58:49;;;;;;;10.60;9.60;;;5.00;49.30;;;;;;5012752;28;20404;-65
2021/01/06 04:01:41;;;;;;;10.53;9.43;;;4.90;48.90;;;;;;5012919;28;20400;-64
2021/01/06 04:04:07;;;;;;;10.17;9.20;;;5.00;49.20;;;;;;5012606;28;20526;-64
2021/01/06 04:06:34;;;;;;;10.43;9.43;;;4.90;50.00;;;;;;5012698;28;20440;-64
2021/01/06 04:09:04;;;;;;;10.93;9.70;;;4.90;49.50;;;;;;5012611;28;20169;-64
2021/01/06 04:11:36;;;;;;;9.97;8.97;;;4.80;50.20;;;;;;5012712;28;20462;-64
2021/01/06 04:14:03;;;;;;;10.43;9.33;;;4.90;49.60;;;;;;5012446;28;20878;-64
2021/01/06 04:16:28;;;;;;;10.50;9.50;;;5.00;49.20;;;;;;5012688;28;20779;-64
2021/01/06 04:18:54;;;;;;;11.13;10.03;;;5.00;48.50;;;;;;5012318;28;20411;-65
2021/01/06 04:21:21;;;;;;;11.17;10.00;;;5.00;48.90;;;;;;5011983;28;20856;-64
2021/01/06 04:23:47;;;;;;;10.60;9.40;;;5.10;48.60;;;;;;5012426;28;20507;-64
2021/01/06 04:26:14;;;;;;;10.07;9.17;;;5.10;48.30;;;;;;5012506;28;20787;-64
2021/01/06 04:28:40;;;;;;;10.60;9.53;;;5.10;48.30;;;;;;5012258;28;20527;-64
2021/01/06 04:31:09;;;;;;;10.90;9.87;;;5.00;48.20;;;;;;5012582;28;20547;-64
2021/01/06 04:33:39;;;;;;;12.27;10.07;;;5.00;49.40;;;;;;5012127;28;20826;-64
2021/01/06 04:36:12;;;;;;;11.97;10.27;;;5.10;48.30;;;;;;5012606;28;20443;-64
2021/01/06 04:38:46;;;;;;;9.70;8.70;;;5.10;48.30;;;;;;5012389;28;20412;-64
2021/01/06 04:41:28;;;;;;;11.90;9.97;;;5.30;48.00;;;;;;5012370;28;20777;-64
2021/01/06 04:44:18;;;;;;;11.00;9.93;;;5.30;47.50;;;;;;5012094;28;20412;-64
2021/01/06 04:47:02;;;;;;;11.03;9.93;;;5.30;47.10;;;;;;5012146;28;20427;-63
2021/01/06 04:49:51;;;;;;;9.90;8.90;;;5.20;48.40;;;;;;5011955;28;20781;-64
2021/01/06 04:52:56;;;;;;;11.17;10.03;;;5.30;47.00;;;;;;5011838;28;20625;-64
2021/01/06 04:55:48;;;;;;;9.73;8.73;;;5.40;47.60;;;;;;5011696;28;20849;-64
2021/01/06 04:58:27;;;;;;;10.90;9.30;;;5.40;47.40;;;;;;5011752;28;20400;-64
2021/01/06 05:01:05;;;;;;;11.10;10.00;;;5.30;48.20;;;;;;5011722;28;20406;-64
2021/01/06 05:03:58;;;;;;;11.60;9.73;;;5.10;47.70;;;;;;5011583;28;20499;-64
2021/01/06 05:06:34;;;;;;;9.97;8.73;;;5.10;48.00;;;;;;5011798;28;20406;-64
2021/01/06 05:09:10;;;;;;;9.83;8.93;;;5.20;47.40;;;;;;5011463;28;20415;-63
2021/01/06 05:11:44;;;;;;;11.43;10.23;;;5.20;47.10;;;;;;5011444;28;20407;-64
2021/01/06 05:14:15;;;;;;;11.03;9.50;;;5.30;46.70;;;;;;5011433;28;20966;-64
2021/01/06 05:16:47;;;;;;;9.90;8.90;;;5.40;46.60;;;;;;5011667;28;20401;-64
2021/01/06 05:19:26;;;;;;;11.97;9.77;;;5.40;45.80;;;;;;5010936;28;20466;-64
2021/01/06 05:21:53;;;;;;;9.60;8.60;;;5.40;47.00;;;;;;5011703;28;20382;-63
2021/01/06 05:24:18;;;;;;;10.73;9.43;;;5.40;46.80;;;;;;5011183;28;20451;-63
2021/01/06 05:26:50;;;;;;;9.77;8.47;;;5.30;46.70;;;;;;5011140;28;20894;-63
2021/01/06 05:29:24;;;;;;;9.00;8.10;;;5.40;46.10;;;;;;5011273;28;20172;-63
2021/01/06 05:31:50;;;;;;;10.47;9.33;;;5.30;46.20;;;;;;5010629;28;20471;-64
2021/01/06 05:34:15;;;;;;;9.30;8.40;;;5.20;46.40;;;;;;5010660;28;20436;-63
2021/01/06 05:36:43;;;;;;;10.43;9.20;;;5.30;46.40;;;;;;5011209;28;20700;-64
2021/01/06 05:39:20;;;;;;;9.40;8.20;;;5.40;46.70;;;;;;5009930;28;20170;-64
2021/01/06 05:41:48;;;;;;;10.37;7.70;;;5.40;46.40;;;;;;5010969;28;20408;-64
2021/01/06 05:44:14;;;;;;;9.37;8.50;;;5.40;45.70;;;;;;5011047;28;20436;-65
2021/01/06 05:46:44;;;;;;;9.70;8.70;;;5.40;46.00;;;;;;5010802;28;20412;-64
2021/01/06 05:49:26;;;;;;;8.80;7.90;;;5.50;45.40;;;;;;5010941;28;20181;-64
2021/01/06 05:51:57;;;;;;;9.00;7.70;;;5.50;46.20;;;;;;5011019;28;20476;-65
2021/01/06 05:54:40;;;;;;;10.23;9.10;;;5.60;45.30;;;;;;5010867;28;20520;-66
2021/01/06 05:57:20;;;;;;;10.17;9.17;;;5.50;46.10;;;;;;5010773;28;20895;-65
2021/01/06 05:59:48;;;;;;;9.90;8.90;;;5.50;45.60;;;;;;5011091;28;20412;-65
2021/01/06 06:02:32;;;;;;;10.80;8.77;;;5.30;46.50;;;;;;5010641;28;20546;-64
2021/01/06 06:05:12;;;;;;;10.00;9.10;;;5.40;46.50;;;;;;5010865;28;20424;-64
2021/01/06 06:08:02;;;;;;;8.30;7.47;;;5.40;46.60;;;;;;5010760;28;20415;-64
2021/01/06 06:10:56;;;;;;;9.67;8.77;;;5.50;46.20;;;;;;5010657;28;20443;-64
2021/01/06 06:13:53;;;;;;;9.23;8.33;;;5.40;46.60;;;;;;5010767;28;20904;-64
2021/01/06 06:16:45;;;;;;;8.80;7.90;;;5.60;46.00;;;;;;5010755;28;20415;-64
2021/01/06 06:19:36;;;;;;;8.23;7.40;;;5.50;45.70;;;;;;5010771;28;20771;-64
2021/01/06 06:22:06;;;;;;;9.17;8.23;;;5.30;47.00;;;;;;5010706;28;20555;-64
2021/01/06 06:24:41;;;;;;;8.53;7.73;;;5.30;46.40;;;;;;5010428;28;21271;-64
2021/01/06 06:27:31;;;;;;;7.37;6.63;;;5.30;45.80;;;;;;5010633;28;20413;-65
2021/01/06 06:30:19;;;;;;;8.50;7.80;;;5.50;46.00;;;;;;5010681;28;20398;-65
2021/01/06 06:32:48;;;;;;;10.80;8.30;;;5.50;46.00;;;;;;5010514;28;20543;-65
2021/01/06 06:35:37;;;;;;;8.80;7.67;;;5.50;46.40;;;;;;5010805;28;20425;-64
2021/01/06 06:38:06;;;;;;;9.70;7.60;;;5.50;45.80;;;;;;5010482;28;20409;-65
2021/01/06 06:41:01;;;;;;;12.10;7.97;;;5.40;45.60;;;;;;5010398;28;20468;-64
2021/01/06 06:43:35;;;;;;;8.10;7.30;;;5.30;46.10;;;;;;5010983;28;20408;-64
2021/01/06 06:46:21;;;;;;;9.40;8.60;;;5.40;45.70;;;;;;5014175;28;20427;-65
2021/01/06 06:48:58;;;;;;;9.00;7.83;;;5.30;46.20;;;;;;5006475;28;20915;-65
2021/01/06 06:51:52;;;;;;;9.50;8.00;;;5.40;45.60;;;;;;5014051;28;20408;-64
2021/01/06 06:54:44;;;;;;;9.60;8.70;;;5.50;45.90;;;;;;5012984;28;20809;-64
2021/01/06 06:57:23;;;;;;;9.17;7.73;;;5.40;45.40;;;;;;5013877;28;20483;-64
2021/01/06 07:00:17;;;;;;;7.70;7.00;;;5.20;46.10;;;;;;5014010;28;21103;-64
2021/01/06 07:03:01;;;;;;;7.60;6.90;;;5.00;47.00;;;;;;5008707;28;20424;-65
2021/01/06 07:05:51;;;;;;;7.47;6.77;;;5.20;47.30;;;;;;5013602;28;20428;-65
2021/01/06 07:08:29;;;;;;;7.90;7.20;;;5.40;46.10;;;;;;5013679;28;20404;-64
2021/01/06 07:11:02;;;;;;;7.90;7.17;;;5.30;45.40;;;;;;5014088;28;20415;-65
2021/01/06 07:13:30;;;;;;;7.93;7.20;;;5.40;46.50;;;;;;5013918;28;20459;-66
2021/01/06 07:16:30;;;;;;;7.23;6.57;;;5.30;45.30;;;;;;5013636;28;20421;-65
2021/01/06 07:19:11;;;;;;;7.20;6.50;;;5.40;45.20;;;;;;5013717;28;20432;-64
2021/01/06 07:21:37;;;;;;;7.30;6.60;;;5.40;45.40;;;;;;5013754;28;20997;-66
2021/01/06 07:24:14;;;;;;;8.63;7.80;;;5.40;45.20;;;;;;5013121;28;20456;-65
2021/01/06 07:26:46;;;;;;;7.30;6.77;;;5.60;44.60;;;;;;5013470;28;20507;-66
2021/01/06 07:29:14;;;;;;;8.50;7.70;;;5.50;44.90;;;;;;5013341;28;20408;-63
2021/01/06 07:32:01;;;;;;;7.40;6.80;;;5.60;44.70;;;;;;5013362;28;20400;-64
2021/01/06 07:34:53;;;;;;;8.23;7.40;;;5.40;46.00;;;;;;5013377;28;20916;-63
2021/01/06 07:37:37;;;;;;;7.30;6.70;;;5.50;44.90;;;;;;5013220;28;20511;-63
2021/01/06 07:40:14;;;;;;;6.83;6.23;;;5.50;45.20;;;;;;5013154;28;20412;-64
2021/01/06 07:42:43;;;;;;;7.27;6.67;;;5.60;44.90;;;;;;5013223;28;20408;-64
2021/01/06 07:45:20;;;;;;;7.40;6.70;;;5.70;44.90;;;;;;5013098;28;20960;-64
2021/01/06 07:48:15;;;;;;;7.47;6.87;;;5.60;45.30;;;;;;5012631;28;20445;-63
2021/01/06 07:50:47;;;;;;;6.50;6.00;;;5.70;45.60;;;;;;4994326;28;20412;-64
2021/01/06 07:53:16;;;;;;;7.47;6.80;;;5.80;45.40;;;;;;5012793;28;20463;-64
2021/01/06 07:55:58;;;;;;;6.97;6.37;;;5.40;45.00;;;;;;5011861;28;20802;-63
2021/01/06 07:58:40;;;;;;;7.67;6.97;;;5.50;45.60;;;;;;5012704;28;21018;-63
2021/01/06 08:01:17;;;;;;;6.13;5.53;;;5.50;45.60;;;;;;5012585;28;20413;-64
2021/01/06 08:03:59;;;;;;;7.50;6.80;;;5.40;45.20;;;;;;5012779;28;20495;-63
2021/01/06 08:06:49;;;;;;;8.10;6.70;;;5.50;45.40;;;;;;5012762;28;20428;-64
2021/01/06 08:09:35;;;;;;;6.17;5.67;;;5.50;45.10;;;;;;5012303;28;20921;-64
2021/01/06 08:12:21;;;;;;;6.60;6.00;;;5.60;44.70;;;;;;5012611;28;20515;-64
2021/01/06 08:14:47;;;;;;;6.50;5.90;;;5.70;45.00;;;;;;5012626;28;20442;-64
2021/01/06 08:17:43;;;;;;;8.03;7.27;;;5.60;45.40;;;;;;5012129;28;20421;-65
2021/01/06 08:20:11;;;;;;;7.33;6.73;;;5.50;46.00;;;;;;5011619;28;20427;-63
2021/01/06 08:22:55;;;;;;;8.07;7.27;;;5.30;46.30;;;;;;5012267;28;20411;-63
2021/01/06 08:25:26;;;;;;;7.07;6.47;;;5.40;46.90;;;;;;5012325;28;20532;-63
2021/01/06 08:27:52;;;;;;;7.90;7.20;;;5.40;46.00;;;;;;5012339;28;20465;-64
2021/01/06 08:30:20;;;;;;;7.03;6.43;;;5.50;46.10;;;;;;5012158;28;20413;-63
2021/01/06 08:32:48;;;;;;;8.37;7.67;;;5.70;45.30;;;;;;5012347;28;20228;-63
2021/01/06 08:35:20;;;;;;;8.47;7.60;;;5.60;45.80;;;;;;5012261;28;20439;-63
2021/01/06 08:37:50;;;;;;;6.13;5.73;;;5.60;45.10;;;;;;5011848;28;20400;-63
2021/01/06 08:40:30;;;;;;;7.23;6.63;;;5.80;45.70;;;;;;5012422;28;20416;-65
2021/01/06 08:42:55;;;;;;;7.13;6.43;;;5.70;45.20;;;;;;5012131;28;20781;-65
2021/01/06 08:45:25;;;;;;;6.80;6.20;;;5.60;45.80;;;;;;5011596;28;20432;-63
2021/01/06 08:47:51;;;;;;;7.37;6.67;;;8.50;62.80;;;;;;5011643;28;20416;-64
2021/01/06 08:50:16;;;;;;;7.43;6.17;;;8.80;46.10;;;;;;5011574;28;20423;-65
2021/01/06 08:52:57;;;;;;;6.77;6.20;;;9.50;42.60;;;;;;5011483;28;20242;-64
2021/01/06 08:55:37;;;;;;;5.27;4.77;;;10.30;44.60;;;;;;5011822;28;20200;-65
2021/01/06 08:58:08;;;;;;;7.33;6.63;;;11.60;42.50;;;;;;5011556;28;20408;-63
2021/01/06 09:00:41;;;;;;;6.63;6.03;;;10.40;30.20;;;;;;5011382;28;20415;-63
2021/01/06 09:03:06;;;;;;;6.63;6.03;;;8.90;35.00;;;;;;5011815;28;20498;-64
2021/01/06 09:06:03;;;;;;;6.73;6.03;;;7.90;37.10;;;;;;5011551;28;21015;-64
2021/01/06 09:08:38;;;;;;;7.43;6.87;;;7.30;39.60;;;;;;5011128;28;20189;-65
2021/01/06 09:11:24;;;;;;;6.57;6.07;;;7.00;41.10;;;;;;5011582;28;20404;-64
2021/01/06 09:14:16;;;;;;;7.00;6.50;;;6.70;41.60;;;;;;5011349;28;20544;-64
2021/01/06 09:16:56;;;;;;;7.07;6.47;;;6.60;41.90;;;;;;5017877;28;20465;-63
2021/01/06 09:19:25;;;;;;;7.33;6.80;;;6.20;42.40;;;;;;5011547;28;20451;-64
2021/01/06 09:21:52;;;;;;;7.87;7.17;;;6.10;43.00;;;;;;5011244;28;21109;-64
2021/01/06 09:24:24;;;;;;;7.47;6.77;;;6.10;43.80;;;;;;5011148;28;20491;-63
2021/01/06 09:26:55;;;;;;;8.60;7.87;;;6.10;43.50;;;;;;5011228;28;20492;-64
2021/01/06 09:29:24;;;;;;;7.30;6.70;;;5.70;44.00;;;;;;5010881;28;20411;-64
2021/01/06 09:31:53;;;;;;;6.47;5.97;;;5.80;45.80;;;;;;5011229;28;20438;-64
2021/01/06 09:34:24;;;;;;;6.97;6.37;;;5.90;44.20;;;;;;5011340;28;20433;-64
2021/01/06 09:36:50;;;;;;;7.30;6.70;;;5.90;44.20;;;;;;5011133;28;20835;-63
2021/01/06 09:39:24;;;;;;;7.40;6.60;;;6.00;43.90;;;;;;5011026;28;20503;-63
2021/01/06 09:41:53;;;;;;;8.17;7.37;;;5.90;43.50;;;;;;5011130;28;20462;-63
2021/01/06 09:44:19;;;;;;;6.97;6.37;;;5.80;44.50;;;;;;5010649;28;21202;-64
2021/01/06 09:46:50;;;;;;;8.37;7.23;;;5.80;44.80;;;;;;5011060;28;20499;-64
2021/01/06 09:49:29;;;;;;;7.43;6.83;;;5.70;45.30;;;;;;5010969;28;20181;-63
2021/01/06 09:51:57;;;;;;;11.13;6.87;;;5.80;45.10;;;;;;5010758;28;20791;-64
2021/01/06 09:54:25;;;;;;;7.70;7.00;;;5.60;45.60;;;;;;5010680;28;20433;-63
2021/01/06 09:56:51;;;;;;;6.83;6.23;;;5.70;45.90;;;;;;5010223;28;20426;-64
2021/01/06 09:59:27;;;;;;;7.27;6.60;;;5.70;45.60;;;;;;5010217;28;20452;-63
2021/01/06 10:02:13;;;;;;;7.60;6.90;;;5.70;45.70;;;;;;5010988;28;20408;-64
2021/01/06 10:04:42;;;;;;;8.30;6.87;;;5.50;46.80;;;;;;5010818;28;20786;-65
2021/01/06 10:07:46;;;;;;;8.53;7.67;;;5.50;47.10;;;;;;5010380;28;20475;-65
2021/01/06 10:10:22;;;;;;;8.10;7.40;;;5.40;47.20;;;;;;4994959;28;20527;-65
2021/01/06 10:12:57;;;;;;;8.07;7.30;;;5.60;46.50;;;;;;5010771;28;20821;-66
2021/01/06 10:15:34;;;;;;;7.67;7.07;;;5.50;46.40;;;;;;5010203;28;20433;-65
2021/01/06 10:18:38;;;;;;;7.50;6.80;;;5.30;47.20;;;;;;5010500;28;20911;-65
2021/01/06 10:21:24;;;;;;;8.40;7.60;;;5.70;46.00;;;;;;5014517;28;20457;-64
2021/01/06 10:24:30;;;;;;;7.93;7.23;;;5.50;46.80;;;;;;5014424;28;20505;-66
2021/01/06 10:27:23;;;;;;;7.40;6.80;;;5.50;46.00;;;;;;4972977;28;20430;-66
2021/01/06 10:29:52;;;;;;;6.67;6.17;;;5.30;47.30;;;;;;5014287;28;20420;-65
2021/01/06 10:32:34;;;;;;;9.30;7.77;;;5.50;46.70;;;;;;5014506;28;20468;-64
2021/01/06 10:35:24;;;;;;;7.80;7.10;;;5.70;45.40;;;;;;5014491;28;20947;-65
2021/01/06 10:37:50;;;;;;;8.00;7.30;;;5.90;44.50;;;;;;5014077;28;20416;-65
2021/01/06 10:40:31;;;;;;;7.70;7.00;;;5.80;45.30;;;;;;5014268;28;20491;-65
2021/01/06 10:42:57;;;;;;;9.07;7.37;;;5.80;45.20;;;;;;5014453;28;20201;-66
2021/01/06 10:45:34;;;;;;;7.57;6.87;;;5.90;44.50;;;;;;5014075;28;20439;-66
2021/01/06 10:48:00;;;;;;;8.00;7.30;;;5.90;44.60;;;;;;5014147;28;20211;-65
2021/01/06 10:50:29;;;;;;;7.73;7.00;;;5.90;45.20;;;;;;5014082;28;20475;-65
2021/01/06 10:53:07;;;;;;;8.90;8.10;;;5.90;44.10;;;;;;5013869;28;20898;-65
2021/01/06 10:56:04;;;;;;;7.63;7.03;;;5.80;45.20;;;;;;5014004;28;20495;-65
2021/01/06 10:58:51;;;;;;;8.17;7.47;;;5.70;46.30;;;;;;5011587;28;20432;-64
2021/01/06 11:01:24;;;;;;;8.77;7.97;;;5.80;45.40;;;;;;5013810;28;20418;-66
2021/01/06 11:04:20;;;;;;;9.07;8.17;;;5.70;46.00;;;;;;5013888;28;20411;-66
2021/01/06 11:07:23;;;;;;;11.27;10.17;;;5.60;45.50;;;;;;5013613;28;20409;-66
2021/01/06 11:10:10;;;;;;;10.07;7.20;;;5.70;45.70;;;;;;5013836;28;20466;-65
2021/01/06 11:13:07;;;;;;;8.70;7.90;;;5.40;46.40;;;;;;5013704;28;20488;-66
2021/01/06 11:15:53;;;;;;;8.63;7.73;;;5.70;45.40;;;;;;5013609;28;20512;-64
2021/01/06 11:18:22;;;;;;;8.23;7.43;;;5.50;45.50;;;;;;5013642;28;20422;-65
2021/01/06 11:21:10;;;;;;;8.83;8.13;;;5.60;45.90;;;;;;5013435;28;20403;-65
2021/01/06 11:23:54;;;;;;;9.27;8.43;;;5.80;45.60;;;;;;5013435;28;20414;-64
2021/01/06 11:26:31;;;;;;;8.37;7.57;;;5.60;46.00;;;;;;5013474;28;20409;-65
2021/01/06 11:29:18;;;;;;;7.67;6.97;;;5.70;45.30;;;;;;5013019;28;20417;-64
2021/01/06 11:32:19;;;;;;;8.17;7.47;;;5.60;45.40;;;;;;5013477;28;20438;-65
2021/01/06 11:34:50;;;;;;;8.30;7.50;;;5.60;46.70;;;;;;5013243;28;20881;-65
2021/01/06 11:37:33;;;;;;;8.70;7.90;;;5.60;46.50;;;;;;5013014;28;20404;-65
2021/01/06 11:39:59;;;;;;;8.17;7.37;;;5.60;47.10;;;;;;5013354;28;20473;-64
2021/01/06 11:42:44;;;;;;;8.60;7.80;;;5.50;45.80;;;;;;5012971;28;20865;-65
2021/01/06 11:45:12;;;;;;;10.83;9.93;;;5.50;46.20;;;;;;5013134;28;20428;-63
2021/01/06 11:47:55;;;;;;;9.63;8.83;;;5.40;47.70;;;;;;5012819;28;20433;-66
2021/01/06 11:50:39;;;;;;;8.33;7.53;;;5.00;48.20;;;;;;5011803;28;20776;-63
2021/01/06 11:53:25;;;;;;;8.70;7.90;;;5.20;48.40;;;;;;5012786;28;20542;-64
2021/01/06 11:56:19;;;;;;;8.93;8.13;;;5.40;47.70;;;;;;5012980;28;20433;-64
2021/01/06 11:59:06;;;;;;;8.60;7.80;;;5.40;47.60;;;;;;5012514;28;20410;-65
2021/01/06 12:01:34;;;;;;;9.63;8.63;;;5.40;47.20;;;;;;5012923;28;20410;-64
2021/01/06 12:04:45;;;;;;;9.23;8.40;;;5.50;47.10;;;;;;5013042;28;20412;-64
2021/01/06 12:07:40;;;;;;;9.47;8.57;;;5.70;45.90;;;;;;5002521;28;20416;-64
2021/01/06 12:10:30;;;;;;;10.00;8.80;;;5.70;46.10;;;;;;5012699;28;20414;-63
2021/01/06 12:13:21;;;;;;;10.10;9.10;;;5.60;46.60;;;;;;5012339;28;20517;-63
2021/01/06 12:16:07;;;;;;;8.40;7.60;;;5.80;46.60;;;;;;4996934;28;20440;-67
2021/01/06 12:18:52;;;;;;;9.60;8.70;;;5.50;45.80;;;;;;5012542;28;20408;-64
2021/01/06 12:21:44;;;;;;;9.47;8.67;;;5.50;48.40;;;;;;5012347;28;20426;-63
2021/01/06 12:24:19;;;;;;;9.60;8.70;;;5.50;46.80;;;;;;5007661;28;20470;-64
2021/01/06 12:27:07;;;;;;;8.67;7.77;;;5.10;47.60;;;;;;5011964;28;20404;-62
2021/01/06 12:29:50;;;;;;;8.97;7.60;;;5.50;47.90;;;;;;5012189;28;20437;-65
2021/01/06 12:32:32;;;;;;;7.60;6.90;;;5.60;47.10;;;;;;5012087;28;20473;-68
2021/01/06 12:35:26;;;;;;;7.90;7.20;;;5.60;46.90;;;;;;5011839;28;20431;-64
2021/01/06 12:38:05;;;;;;;8.13;7.43;;;5.80;46.20;;;;;;5010583;28;20412;-64
2021/01/06 12:40:32;;;;;;;7.17;6.60;;;5.80;46.80;;;;;;5012095;28;20403;-64
2021/01/06 12:43:01;;;;;;;7.13;6.53;;;5.80;45.90;;;;;;5011416;28;20571;-64
2021/01/06 12:45:36;;;;;;;7.30;6.70;;;5.80;46.10;;;;;;5012095;28;20432;-64
2021/01/06 12:48:14;;;;;;;7.40;6.73;;;5.80;45.80;;;;;;5011985;28;20438;-65
2021/01/06 12:51:19;;;;;;;6.37;5.80;;;5.80;46.80;;;;;;5012074;28;20925;-64
2021/01/06 12:54:02;;;;;;;7.17;6.47;;;5.90;46.00;;;;;;5011816;28;20451;-65
2021/01/06 12:56:34;;;;;;;7.43;6.83;;;5.90;46.10;;;;;;5011922;28;20403;-64
2021/01/06 12:59:00;;;;;;;7.50;6.90;;;5.80;46.80;;;;;;5011652;28;20769;-66
2021/01/06 13:01:33;;;;;;;7.10;6.60;;;5.80;47.00;;;;;;5011566;28;20469;-65
2021/01/06 13:04:04;;;;;;;7.30;6.70;;;5.80;46.30;;;;;;5011496;28;20182;-65
2021/01/06 13:06:30;;;;;;;7.40;6.70;;;5.70;46.90;;;;;;5011801;28;20451;-65
2021/01/06 13:09:04;;;;;;;6.83;6.23;;;5.70;47.30;;;;;;5011443;28;20458;-63
2021/01/06 13:11:36;;;;;;;7.37;6.87;;;6.00;46.30;;;;;;5011515;28;20178;-65
2021/01/06 13:14:10;;;;;;;5.90;5.40;;;5.90;46.40;;;;;;5011349;28;20458;-64
2021/01/06 13:16:41;;;;;;;6.60;6.10;;;5.90;46.10;;;;;;5011394;28;20541;-64
2021/01/06 13:19:20;;;;;;;6.70;6.20;;;5.80;46.80;;;;;;5011091;28;20413;-66
2021/01/06 13:22:17;;;;;;;6.07;5.50;;;5.80;45.90;;;;;;5011272;28;20409;-65
2021/01/06 13:24:47;;;;;;;6.53;5.77;;;6.00;45.90;;;;;;5010766;28;20942;-64
2021/01/06 13:27:38;;;;;;;6.37;5.87;;;5.90;45.30;;;;;;5010813;28;20416;-65
2021/01/06 13:30:18;;;;;;;5.97;5.47;;;5.90;46.00;;;;;;5010936;28;20447;-65
2021/01/06 13:33:21;;;;;;;6.30;5.80;;;5.90;45.80;;;;;;5008284;28;20482;-63
2021/01/06 13:35:56;;;;;;;6.40;5.80;;;5.70;46.60;;;;;;5010851;28;20459;-66